EDT,Max TemperatureF,Mean TemperatureF,Min TemperatureF,Max Dew PointF,MeanDew PointF,Min DewpointF,Max Humidity, Mean Humidity, Min Humidity, Max Sea Level PressureIn, Mean Sea Level PressureIn, Min Sea Level PressureIn, Max VisibilityMiles, Mean VisibilityMiles, Min VisibilityMiles, Max Wind SpeedMPH, Mean Wind SpeedMPH, Max Gust SpeedMPH,PrecipitationIn, CloudCover, Events, WindDirDegrees
2012-10-1,63,54,44,56,50,43,95,84,58,29.92,29.85,29.73,10,10,7,10,3,,0.00,3,Rain,72
2012-10-2,80,68,57,68,63,56,97,83,59,29.90,29.77,29.72,10,10,2,9,2,,0.00,4,Rain,125
2012-10-3,73,64,55,64,57,50,95,75,45,30.16,30.06,29.90,10,10,10,17,3,18,0.00,2,,227
2012-10-4,75,64,53,56,54,51,96,75,45,30.24,30.19,30.16,10,10,10,15,3,21,0.00,1,,242
2012-10-5,77,64,50,58,54,49,95,74,46,30.17,30.07,29.91,10,10,7,14,3,20,0.00,1,,221
2012-10-6,62,53,44,56,40,32,93,69,38,30.11,30.05,29.90,10,10,5,13,6,24,0.00,3,Rain,292
2012-10-7,51,46,40,39,37,33,91,69,50,30.19,30.13,30.08,10,10,10,9,2,,0.00,6,Rain,313
2012-10-8,49,42,33,40,37,32,96,85,60,30.26,30.21,30.18,10,10,5,8,1,,0.00,3,,167
2012-10-9,54,42,30,45,36,30,100,89,58,30.22,30.14,30.02,10,5,0,8,1,,0.00,4,Fog,192
2012-10-10,58,46,34,46,37,31,97,76,38,30.24,30.04,29.97,10,10,7,18,4,25,0.00,3,,259
2012-10-11,60,44,27,35,30,26,96,68,28,30.32,30.24,30.16,10,10,10,9,1,,0.00,0,,196
2012-10-12,58,45,32,38,33,31,96,73,37,30.38,30.30,30.20,10,10,1,17,2,22,0.00,0,,27
2012-10-13,71,50,30,52,40,28,94,70,40,30.37,30.25,30.09,10,10,7,10,2,16,0.00,1,,174
2012-10-14,77,68,59,57,53,50,72,59,45,30.08,29.94,29.77,10,10,10,22,8,29,0.00,3,,195
2012-10-15,67,54,39,60,48,39,96,81,58,29.96,29.85,29.75,10,10,3,18,7,28,0.00,6,Rain,260
2012-10-16,62,47,32,43,37,32,99,78,39,30.03,29.95,29.86,10,9,1,9,1,,0.00,0,,244
2012-10-17,74,57,40,50,45,38,93,65,39,29.90,29.82,29.68,10,10,10,13,2,17,0.00,1,,173
2012-10-18,61,52,43,52,44,40,93,64,49,29.78,29.69,29.59,10,10,7,20,6,25,0.00,4,Rain,180
2012-10-19,63,54,44,46,41,30,93,71,30,29.74,29.68,29.59,10,10,10,16,7,29,0.00,4,Rain,189
2012-10-20,54,46,38,46,43,38,96,83,63,30.00,29.84,29.74,10,9,0,17,6,25,0.00,6,Fog-Rain,224
2012-10-21,62,47,32,47,38,32,100,81,41,30.17,30.11,30.00,10,6,0,9,1,,0.00,1,Fog,245
2012-10-22,77,56,36,52,45,35,95,67,35,30.19,30.13,30.08,10,10,7,12,2,18,0.00,1,,200
2012-10-23,79,65,51,51,47,42,89,58,28,30.10,30.07,30.03,10,10,10,17,4,24,0.00,0,Thunderstorm,233
2012-10-24,79,66,54,56,51,44,91,66,31,30.17,30.10,30.06,10,10,10,10,2,16,0.00,3,Rain,228
2012-10-25,80,62,44,51,47,42,95,68,30,30.11,30.05,29.99,10,10,10,9,1,,0.00,0,,188
2012-10-26,75,60,46,55,48,44,92,75,47,30.09,30.04,29.99,10,10,5,15,3,20,0.00,3,,334
2012-10-27,52,49,46,47,45,44,94,88,79,30.06,30.02,29.97,10,10,4,10,7,20,0.00,8,Rain,359
2012-10-28,47,43,38,44,41,36,93,90,87,30.03,29.96,29.90,10,9,4,16,8,25,0.00,6,Rain,353
2012-10-29,40,38,35,37,36,33,93,90,87,29.93,29.79,29.49,10,10,5,20,10,32,0.00,,Rain,313
2012-10-30,38,35,32,36,33,32,96,93,91,29.55,29.41,29.33,10,5,2,25,15,36,0.00,,Rain-Snow,281
2012-10-31,42,40,37,39,37,35,94,91,86,29.77,29.66,29.55,10,7,3,16,10,24,0.00,,Rain,259